Pagrindinis puslapis
METAR-TAF:

METAR-TAF

Oro uostai :

Sitiawan, Malaizija

platuma: 04-13N, ilguma: 100-42E, Aukštis: 7 m

Dabartinis oras

Ataskaita buvo paskelbta 52 minutes, ne 19:00 UTC
Vėjas 2 kt nuo kintamojo kryptimis
Temperatūra 24°C
Drėgmė 100%
Slėgis 1009 hPa
Matomumas: 8000 m
Išsisklaidę debesys ne aukštis 2900 ft
lietus

METAR: WMBA 221900Z VRB02KT 8000 -RA SCT029 24/24 Q1009

Laikas: 03:52 (19:52 UTC)


TAF: trūkstamas

Orai ataskaitas ir orų prognozės (METAR, TAF).

turimą stotys yra geltonos ir raudonos taškus žemėlapyje.

Perkelti pele per norėdami pamatyti stoties vardą.

Tada spustelėkite, norėdami matyti oro stebėjimo ir prognozės.

Norėdami pakeisti žemėlapį: spustelėkite ant žalios mygtukų su juodo kryžiaus žemyn,; žalią mygtuką su brūkšneliu, jei norite nutolinti; arba žalių rodyklių gretimoms žemėlapius.


METAR-TAF: